createdAt,value
2023-05-21T00:00:02.789Z,0.01
2023-05-21T00:01:02.933Z,0.02
2023-05-21T00:02:03.072Z,0.02
2023-05-21T00:03:02.307Z,0.03
2023-05-21T00:04:02.752Z,0.02
2023-05-21T00:05:02.775Z,0.02
2023-05-21T00:06:02.838Z,0.01
2023-05-21T00:07:02.734Z,0.02
2023-05-21T00:08:01.857Z,0.02
2023-05-21T00:09:02.109Z,0.01
2023-05-21T00:10:02.324Z,0.02
2023-05-21T00:11:02.305Z,0.02
2023-05-21T00:12:01.733Z,0.02
2023-05-21T00:13:01.889Z,0.02
2023-05-21T00:14:02.009Z,0.02
2023-05-21T00:15:02.390Z,0.03
2023-05-21T00:16:02.295Z,0.02
2023-05-21T00:17:02.326Z,0.02
2023-05-21T00:18:02.131Z,0.02
2023-05-21T00:19:02.391Z,0.02
2023-05-21T00:20:02.607Z,0.02
2023-05-21T00:21:02.509Z,0.02
2023-05-21T00:22:02.374Z,0.01
2023-05-21T00:23:02.453Z,0.02
2023-05-21T00:24:02.651Z,0.02
2023-05-21T00:25:02.951Z,0.02
2023-05-21T00:26:02.806Z,0.02
2023-05-21T00:27:02.468Z,0.02
2023-05-21T00:28:01.703Z,0.02
2023-05-21T00:29:01.909Z,0.03
2023-05-21T00:30:01.701Z,0.02
2023-05-21T00:31:01.935Z,0.01
2023-05-21T00:32:02.190Z,0.02
2023-05-21T00:33:02.237Z,0.02
2023-05-21T00:34:02.087Z,0.02
2023-05-21T00:35:02.259Z,0.02
2023-05-21T00:36:02.351Z,0.02
2023-05-21T00:37:02.518Z,0.02
2023-05-21T00:38:02.649Z,0.02
2023-05-21T00:39:03.081Z,0.02
2023-05-21T00:40:02.984Z,0.02
2023-05-21T00:41:02.777Z,0.02
2023-05-21T00:42:02.518Z,0.02
2023-05-21T00:43:02.636Z,0.02
2023-05-21T00:44:02.543Z,0.02
2023-05-21T00:45:02.681Z,0.02
2023-05-21T00:46:02.885Z,0.02
2023-05-21T00:47:03.094Z,0.02
2023-05-21T00:48:02.440Z,0.02
2023-05-21T00:49:02.405Z,0.03
2023-05-21T00:50:02.540Z,0.02
2023-05-21T00:51:02.601Z,0.02
2023-05-21T00:52:02.077Z,0.02
2023-05-21T00:53:02.305Z,0.02
2023-05-21T00:54:02.547Z,0.02
2023-05-21T00:55:02.428Z,0.02
2023-05-21T00:56:02.517Z,0.02
2023-05-21T00:57:02.654Z,0.01
2023-05-21T00:58:02.632Z,0.02
2023-05-21T00:59:02.582Z,0.01
2023-05-21T01:00:02.786Z,0.02
2023-05-21T01:01:02.809Z,0.02
2023-05-21T01:02:02.863Z,0.02
2023-05-21T01:03:02.101Z,0.02
2023-05-21T01:04:01.845Z,0.01
2023-05-21T01:05:02.138Z,0.03
2023-05-21T01:06:02.048Z,0.02
2023-05-21T01:07:02.430Z,0.02
2023-05-21T01:08:02.578Z,0.03
2023-05-21T01:09:03.914Z,0.02
2023-05-21T01:10:02.243Z,0.02
2023-05-21T01:11:02.096Z,0.02
2023-05-21T01:12:02.360Z,0.02
2023-05-21T01:13:02.309Z,0.02
2023-05-21T01:14:02.322Z,0.01
2023-05-21T01:15:02.512Z,0.02
2023-05-21T01:16:02.722Z,0.02
2023-05-21T01:17:02.608Z,0.02
2023-05-21T01:18:02.811Z,0.02
2023-05-21T01:19:03.009Z,0.02
2023-05-21T01:20:02.511Z,0.02
2023-05-21T01:21:02.744Z,0.02
2023-05-21T01:22:02.748Z,0.02
2023-05-21T01:23:02.110Z,0.02
2023-05-21T01:24:02.288Z,0.02
2023-05-21T01:25:02.212Z,0.02
2023-05-21T01:26:02.361Z,0.01
2023-05-21T01:27:02.232Z,0.01
2023-05-21T01:28:02.289Z,0.02
2023-05-21T01:29:02.499Z,0.02
2023-05-21T01:30:02.138Z,0.02
2023-05-21T01:31:02.251Z,0.02
2023-05-21T01:32:02.565Z,0.02
2023-05-21T01:33:02.312Z,0.02
2023-05-21T01:34:02.499Z,0.02
2023-05-21T01:35:02.281Z,0.01
2023-05-21T01:36:02.419Z,0.02
2023-05-21T01:37:02.526Z,0.01
2023-05-21T01:38:02.680Z,0.02
2023-05-21T01:39:02.558Z,0.02
2023-05-21T01:40:02.175Z,0.03
2023-05-21T01:41:02.532Z,0.03
2023-05-21T01:42:02.602Z,0.02
2023-05-21T01:43:02.714Z,0.03
2023-05-21T01:44:02.857Z,0.02
2023-05-21T01:45:03.020Z,0.01
2023-05-21T01:46:02.830Z,0.03
2023-05-21T01:47:03.060Z,0.02
2023-05-21T01:48:02.426Z,0.01
2023-05-21T01:49:02.410Z,0.02
2023-05-21T01:50:02.514Z,0.01
2023-05-21T01:51:02.054Z,0.02
2023-05-21T01:52:02.169Z,0.02
2023-05-21T01:53:02.205Z,0.02
2023-05-21T01:54:02.614Z,0.02
2023-05-21T01:55:02.761Z,0.01
2023-05-21T01:56:02.594Z,0.02
2023-05-21T01:57:02.409Z,0.02
2023-05-21T01:58:02.785Z,0.02
2023-05-21T01:59:02.573Z,0.02
2023-05-21T02:00:02.731Z,0.02
2023-05-21T02:01:02.746Z,0.03
2023-05-21T02:02:02.597Z,0.02
2023-05-21T02:03:02.951Z,0.02
2023-05-21T02:04:02.991Z,0.02
2023-05-21T02:05:03.018Z,0.02
2023-05-21T02:06:02.668Z,0.01
2023-05-21T02:07:02.583Z,0.02
2023-05-21T02:08:02.488Z,0.03
2023-05-21T02:09:02.286Z,0.01
2023-05-21T02:10:02.162Z,0.02
2023-05-21T02:11:02.443Z,0.02
2023-05-21T02:12:02.294Z,0.02
2023-05-21T02:13:02.539Z,0.03
2023-05-21T02:14:02.687Z,0.02
2023-05-21T02:15:02.616Z,0.02
2023-05-21T02:16:02.778Z,0.02
2023-05-21T02:17:02.814Z,0.02
2023-05-21T02:18:02.467Z,0.02
2023-05-21T02:19:02.953Z,0.03
2023-05-21T02:20:02.708Z,0.02
2023-05-21T02:21:02.314Z,0.02
2023-05-21T02:22:02.638Z,0.02
2023-05-21T02:23:02.754Z,0.02
2023-05-21T02:24:02.651Z,0.02
2023-05-21T02:25:02.624Z,0.02
2023-05-21T02:26:03.036Z,0.02
2023-05-21T02:27:02.923Z,0.02
2023-05-21T02:28:02.060Z,0.02
2023-05-21T02:29:02.038Z,0.02
2023-05-21T02:30:02.213Z,0.02
2023-05-21T02:31:01.995Z,0.02
2023-05-21T02:32:01.957Z,0.02
2023-05-21T02:33:02.928Z,0.02
2023-05-21T02:34:02.933Z,0.01
2023-05-21T02:35:02.827Z,0.02
2023-05-21T02:36:02.379Z,0.01
2023-05-21T02:37:02.458Z,0.02
2023-05-21T02:38:02.348Z,0.02
2023-05-21T02:39:01.861Z,0.02
2023-05-21T02:40:02.714Z,0.02
2023-05-21T02:41:02.406Z,0.02
2023-05-21T02:42:02.134Z,0.02
2023-05-21T02:43:02.888Z,0.02
2023-05-21T02:44:02.855Z,0.03
2023-05-21T02:45:02.908Z,0.03
2023-05-21T02:46:02.438Z,0.02
2023-05-21T02:47:02.459Z,0.02
2023-05-21T02:48:02.269Z,0.02
2023-05-21T02:49:01.674Z,0.02
2023-05-21T02:50:02.110Z,0.01
2023-05-21T02:51:02.220Z,0.02
2023-05-21T02:52:01.858Z,0.02
2023-05-21T02:53:02.708Z,0.02
2023-05-21T02:54:02.249Z,0.02
2023-05-21T02:55:02.389Z,0.02
2023-05-21T02:56:02.780Z,0.02
2023-05-21T02:57:02.667Z,0.02
2023-05-21T02:58:02.464Z,0.01
2023-05-21T02:59:02.470Z,0.02
2023-05-21T03:00:02.310Z,0.03
2023-05-21T03:01:02.628Z,0.02
2023-05-21T03:02:01.898Z,0.02
2023-05-21T03:03:02.100Z,0.02
2023-05-21T03:04:02.704Z,0.02
2023-05-21T03:05:02.173Z,0.02
2023-05-21T03:06:02.278Z,0.01
2023-05-21T03:07:02.457Z,0.02
2023-05-21T03:08:02.746Z,0.02
2023-05-21T03:09:02.924Z,0.02
2023-05-21T03:10:03.021Z,0.02
2023-05-21T03:11:03.117Z,0.02
2023-05-21T03:12:03.291Z,0.02
2023-05-21T03:13:02.954Z,0.02
2023-05-21T03:14:02.517Z,0.02
2023-05-21T03:15:02.707Z,0.01
2023-05-21T03:16:02.833Z,0.02
2023-05-21T03:17:02.790Z,0.02
2023-05-21T03:18:02.706Z,0.02
2023-05-21T03:19:02.760Z,0.02
2023-05-21T03:20:02.998Z,0.03
2023-05-21T03:21:02.747Z,0.01
2023-05-21T03:22:02.990Z,0.02
2023-05-21T03:23:02.960Z,0.02
2023-05-21T03:24:03.037Z,0.02
2023-05-21T03:25:03.166Z,0.02
2023-05-21T03:26:02.987Z,0.02
2023-05-21T03:27:03.102Z,0.02
2023-05-21T03:28:02.307Z,0.03
2023-05-21T03:29:02.761Z,0.03
2023-05-21T03:30:03.887Z,0.02
2023-05-21T03:31:02.827Z,0.03
2023-05-21T03:32:02.414Z,0.02
2023-05-21T03:33:02.582Z,0.02
2023-05-21T03:34:02.822Z,0.03
2023-05-21T03:35:02.879Z,0.02
2023-05-21T03:36:03.076Z,0.03
2023-05-21T03:37:03.213Z,0.03
2023-05-21T03:38:03.133Z,0.03
2023-05-21T03:39:02.839Z,0.03
2023-05-21T03:40:02.866Z,0.02
2023-05-21T03:41:03.197Z,0.03
2023-05-21T03:42:02.850Z,0.03
2023-05-21T03:43:02.943Z,0.03
2023-05-21T03:44:03.180Z,0.03
2023-05-21T03:45:03.421Z,0.04
2023-05-21T03:46:03.327Z,0.03
2023-05-21T03:47:03.621Z,0.03
2023-05-21T03:48:02.723Z,0.03
2023-05-21T03:49:02.897Z,0.04
2023-05-21T03:50:02.982Z,0.04
2023-05-21T03:51:02.796Z,0.04
2023-05-21T03:52:02.995Z,0.04
2023-05-21T03:53:02.465Z,0.04
2023-05-21T03:54:02.735Z,0.04
2023-05-21T03:55:02.668Z,0.04
2023-05-21T03:56:02.233Z,0.05
2023-05-21T03:57:02.539Z,0.05
2023-05-21T03:58:03.464Z,0.05
2023-05-21T03:59:02.818Z,0.06
2023-05-21T04:00:03.077Z,0.06
2023-05-21T04:01:03.125Z,0.06
2023-05-21T04:02:03.074Z,0.05
2023-05-21T04:03:03.079Z,0.06
2023-05-21T04:04:02.815Z,0.07
2023-05-21T04:05:02.919Z,0.07
2023-05-21T04:06:03.033Z,0.06
2023-05-21T04:07:03.254Z,0.07
2023-05-21T04:08:02.129Z,0.07
2023-05-21T04:09:01.970Z,0.07
2023-05-21T04:10:02.230Z,0.08
2023-05-21T04:11:02.745Z,0.08
2023-05-21T04:12:02.445Z,0.08
2023-05-21T04:13:02.660Z,0.08
2023-05-21T04:14:02.433Z,0.08
2023-05-21T04:15:02.692Z,0.08
2023-05-21T04:16:02.544Z,0.08
2023-05-21T04:17:02.811Z,0.09
2023-05-21T04:18:01.967Z,0.10
2023-05-21T04:19:02.399Z,0.09
2023-05-21T04:20:02.423Z,0.09
2023-05-21T04:21:02.103Z,0.09
2023-05-21T04:22:02.292Z,0.10
2023-05-21T04:23:02.823Z,0.11
2023-05-21T04:24:02.852Z,0.11
2023-05-21T04:25:02.921Z,0.11
2023-05-21T04:26:02.313Z,0.11
2023-05-21T04:27:02.360Z,0.11
2023-05-21T04:28:02.682Z,0.11
2023-05-21T04:29:02.660Z,0.12
2023-05-21T04:30:02.918Z,0.12
2023-05-21T04:31:02.952Z,0.12
2023-05-21T04:32:03.034Z,0.13
2023-05-21T04:33:02.969Z,0.12
2023-05-21T04:34:03.335Z,0.12
2023-05-21T04:35:03.307Z,0.13
2023-05-21T04:36:02.869Z,0.13
2023-05-21T04:37:03.208Z,0.13
2023-05-21T04:38:04.265Z,0.13
2023-05-21T04:39:02.755Z,0.15
2023-05-21T04:40:02.800Z,0.15
2023-05-21T04:41:02.823Z,0.15
2023-05-21T04:42:02.310Z,0.15
2023-05-21T04:43:02.482Z,0.16
2023-05-21T04:44:02.236Z,0.16
2023-05-21T04:45:02.413Z,0.16
2023-05-21T04:46:02.751Z,0.17
2023-05-21T04:47:02.709Z,0.17
2023-05-21T04:48:02.854Z,0.17
2023-05-21T04:49:02.922Z,0.18
2023-05-21T04:50:03.041Z,0.18
2023-05-21T04:51:02.728Z,0.19
2023-05-21T04:52:03.034Z,0.20
2023-05-21T04:53:02.330Z,0.20
2023-05-21T04:54:02.598Z,0.21
2023-05-21T04:55:02.584Z,0.21
2023-05-21T04:56:02.606Z,0.21
2023-05-21T04:57:01.955Z,0.22
2023-05-21T04:58:02.638Z,0.21
2023-05-21T04:59:05.181Z,0.21
2023-05-21T05:00:03.075Z,0.23
2023-05-21T05:01:03.228Z,0.23
2023-05-21T05:02:02.665Z,0.23
2023-05-21T05:03:03.030Z,0.23
2023-05-21T05:04:03.202Z,0.23
2023-05-21T05:05:02.745Z,0.23
2023-05-21T05:06:03.144Z,0.24
2023-05-21T05:07:02.616Z,0.24
2023-05-21T05:08:03.352Z,0.24
2023-05-21T05:09:03.558Z,0.26
2023-05-21T05:10:03.567Z,0.26
2023-05-21T05:11:03.998Z,0.27
2023-05-21T05:12:03.348Z,0.27
2023-05-21T05:13:03.642Z,0.28
2023-05-21T05:14:03.945Z,0.29
2023-05-21T05:15:03.663Z,0.31
2023-05-21T05:16:03.439Z,0.32
2023-05-21T05:17:03.797Z,0.32
2023-05-21T05:18:02.885Z,0.33
2023-05-21T05:19:02.602Z,0.34
2023-05-21T05:20:02.830Z,0.36
2023-05-21T05:21:02.966Z,0.35
2023-05-21T05:22:02.406Z,0.36
2023-05-21T05:23:03.450Z,0.36
2023-05-21T05:24:03.410Z,0.37
2023-05-21T05:25:03.316Z,0.38
2023-05-21T05:26:03.271Z,0.38
2023-05-21T05:27:03.595Z,0.39
2023-05-21T05:28:03.614Z,0.38
2023-05-21T05:29:03.258Z,0.38
2023-05-21T05:30:03.396Z,0.39
2023-05-21T05:31:03.651Z,0.39
2023-05-21T05:32:03.261Z,0.39
2023-05-21T05:33:03.343Z,0.40
2023-05-21T05:34:02.984Z,0.40
2023-05-21T05:35:03.306Z,0.40
2023-05-21T05:36:02.938Z,0.41
2023-05-21T05:37:02.961Z,0.40
2023-05-21T05:38:03.318Z,0.42
2023-05-21T05:39:03.493Z,0.42
2023-05-21T05:40:03.195Z,0.43
2023-05-21T05:41:02.874Z,0.43
2023-05-21T05:42:03.258Z,0.44
2023-05-21T05:43:03.857Z,0.44
2023-05-21T05:44:03.495Z,0.44
2023-05-21T05:45:03.755Z,0.45
2023-05-21T05:46:03.414Z,0.46
2023-05-21T05:47:03.392Z,0.46
2023-05-21T05:48:03.543Z,0.47
2023-05-21T05:49:03.162Z,0.47
2023-05-21T05:50:03.083Z,0.48
2023-05-21T05:51:03.245Z,0.48
2023-05-21T05:52:03.425Z,0.50
2023-05-21T05:53:03.049Z,0.50
2023-05-21T05:54:02.758Z,0.51
2023-05-21T05:55:03.103Z,0.53
2023-05-21T05:56:02.768Z,0.54
2023-05-21T05:57:03.051Z,0.56
2023-05-21T05:58:03.179Z,0.58
2023-05-21T05:59:03.206Z,0.58
2023-05-21T06:00:02.605Z,0.61
2023-05-21T06:01:02.950Z,0.63
2023-05-21T06:02:02.968Z,0.65
2023-05-21T06:03:03.422Z,0.69
2023-05-21T06:04:02.788Z,0.71
2023-05-21T06:05:03.192Z,0.72
2023-05-21T06:06:02.826Z,0.73
2023-05-21T06:07:03.126Z,0.75
2023-05-21T06:08:03.933Z,0.76
2023-05-21T06:09:03.964Z,0.78
2023-05-21T06:10:03.826Z,0.80
2023-05-21T06:11:03.491Z,0.81
2023-05-21T06:12:03.544Z,0.84
2023-05-21T06:13:03.603Z,0.85
2023-05-21T06:14:03.021Z,0.87
2023-05-21T06:15:03.484Z,0.87
2023-05-21T06:16:03.324Z,0.90
2023-05-21T06:17:03.467Z,0.91
2023-05-21T06:18:03.220Z,0.92
2023-05-21T06:19:03.184Z,0.93
2023-05-21T06:20:02.564Z,0.95
2023-05-21T06:21:02.738Z,0.97
2023-05-21T06:22:03.035Z,0.99
2023-05-21T06:23:02.590Z,1.06
2023-05-21T06:24:02.930Z,1.07
2023-05-21T06:25:02.994Z,1.10
2023-05-21T06:26:02.626Z,1.11
2023-05-21T06:27:02.972Z,1.11
2023-05-21T06:28:02.665Z,1.18
2023-05-21T06:29:03.036Z,1.22
2023-05-21T06:30:03.321Z,1.23
2023-05-21T06:31:03.342Z,1.22
2023-05-21T06:32:02.841Z,1.28
2023-05-21T06:33:03.258Z,1.25
2023-05-21T06:34:03.747Z,1.29
2023-05-21T06:35:03.161Z,1.29
2023-05-21T06:36:03.422Z,1.37
2023-05-21T06:37:03.238Z,1.36
2023-05-21T06:38:02.610Z,1.33
2023-05-21T06:39:02.978Z,1.35
2023-05-21T06:40:02.625Z,1.54
2023-05-21T06:41:02.799Z,1.62
2023-05-21T06:42:02.812Z,1.62
2023-05-21T06:43:03.117Z,1.65
2023-05-21T06:44:03.108Z,1.67
2023-05-21T06:45:03.591Z,1.68
2023-05-21T06:46:03.647Z,1.71
2023-05-21T06:47:03.101Z,1.65
2023-05-21T06:48:03.639Z,1.58
2023-05-21T06:49:03.654Z,1.62
2023-05-21T06:50:03.890Z,1.66
2023-05-21T06:51:03.592Z,1.68
2023-05-21T06:52:03.945Z,1.63
2023-05-21T06:53:02.925Z,1.56
2023-05-21T06:54:03.277Z,1.70
2023-05-21T06:55:02.959Z,1.70
2023-05-21T06:56:03.594Z,1.80
2023-05-21T06:57:03.020Z,1.90
2023-05-21T06:58:02.933Z,1.90
2023-05-21T06:59:03.053Z,1.92
2023-05-21T07:00:03.441Z,1.97
2023-05-21T07:01:03.157Z,2.00
2023-05-21T07:02:04.677Z,2.04
2023-05-21T07:03:02.784Z,2.07
2023-05-21T07:04:03.086Z,2.06
2023-05-21T07:05:02.871Z,2.03
2023-05-21T07:06:02.770Z,1.98
2023-05-21T07:07:02.536Z,1.95
2023-05-21T07:08:02.978Z,1.97
2023-05-21T07:09:03.234Z,2.05
2023-05-21T07:10:03.488Z,2.10
2023-05-21T07:11:03.115Z,2.14
2023-05-21T07:12:03.320Z,2.14
2023-05-21T07:13:02.639Z,2.11
2023-05-21T07:14:02.842Z,2.12
2023-05-21T07:15:02.507Z,2.11
2023-05-21T07:16:02.555Z,2.10
2023-05-21T07:17:02.700Z,2.04
2023-05-21T07:18:03.161Z,1.99
2023-05-21T07:19:03.260Z,1.97
2023-05-21T07:20:03.286Z,2.00
2023-05-21T07:21:02.971Z,2.07
2023-05-21T07:22:03.277Z,2.11
2023-05-21T07:23:02.667Z,2.12
2023-05-21T07:24:02.530Z,2.14
2023-05-21T07:25:03.039Z,2.16
2023-05-21T07:26:02.775Z,2.08
2023-05-21T07:27:06.496Z,2.04
2023-05-21T07:28:04.005Z,2.10
2023-05-21T07:29:03.317Z,2.21
2023-05-21T07:30:03.292Z,2.22
2023-05-21T07:31:03.182Z,2.26
2023-05-21T07:32:03.706Z,2.27
2023-05-21T07:33:03.471Z,2.22
2023-05-21T07:34:03.368Z,2.19
2023-05-21T07:35:03.664Z,2.29
2023-05-21T07:36:03.883Z,2.31
2023-05-21T07:37:03.533Z,2.31
2023-05-21T07:38:03.198Z,2.33
2023-05-21T07:39:03.420Z,2.35
2023-05-21T07:40:03.467Z,2.38
2023-05-21T07:41:03.259Z,2.40
2023-05-21T07:42:03.638Z,2.42
2023-05-21T07:43:02.761Z,2.44
2023-05-21T07:44:03.121Z,2.44
2023-05-21T07:45:02.561Z,2.45
2023-05-21T07:46:02.939Z,2.47
2023-05-21T07:47:02.575Z,2.48
2023-05-21T07:48:03.226Z,2.51
2023-05-21T07:49:02.756Z,2.50
2023-05-21T07:50:02.982Z,2.50
2023-05-21T07:51:03.303Z,2.53
2023-05-21T07:52:02.933Z,2.53
2023-05-21T07:53:03.388Z,2.56
2023-05-21T07:54:03.457Z,2.53
2023-05-21T07:55:02.816Z,2.55
2023-05-21T07:56:03.409Z,2.63
2023-05-21T07:57:03.045Z,2.65
2023-05-21T07:58:03.235Z,2.71
2023-05-21T07:59:02.900Z,2.74
2023-05-21T08:00:03.138Z,2.75
2023-05-21T08:01:03.453Z,2.80
2023-05-21T08:02:03.406Z,2.83
2023-05-21T08:03:02.960Z,2.86
2023-05-21T08:04:03.205Z,2.87
2023-05-21T08:05:02.558Z,2.86
2023-05-21T08:06:02.941Z,2.95
2023-05-21T08:07:02.907Z,2.98
2023-05-21T08:08:03.109Z,2.93
2023-05-21T08:09:02.927Z,3.03
2023-05-21T08:10:03.249Z,3.00
2023-05-21T08:11:03.379Z,2.97
2023-05-21T08:12:03.307Z,3.04
2023-05-21T08:13:02.972Z,3.16
2023-05-21T08:14:02.664Z,3.12
2023-05-21T08:15:02.332Z,3.06
2023-05-21T08:16:02.774Z,3.09
2023-05-21T08:17:02.524Z,3.16
2023-05-21T08:18:03.070Z,2.98
2023-05-21T08:19:02.738Z,3.06
2023-05-21T08:20:03.087Z,3.04
2023-05-21T08:21:02.937Z,3.01
2023-05-21T08:22:03.102Z,2.89
2023-05-21T08:23:02.758Z,2.81
2023-05-21T08:24:02.710Z,3.09
2023-05-21T08:25:02.280Z,3.37
2023-05-21T08:26:02.416Z,3.45
2023-05-21T08:27:02.617Z,3.49
2023-05-21T08:28:02.991Z,3.49
2023-05-21T08:29:03.167Z,3.46
2023-05-21T08:30:02.762Z,3.41
2023-05-21T08:31:03.062Z,3.32
2023-05-21T08:32:03.164Z,3.09
2023-05-21T08:33:03.201Z,3.06
2023-05-21T08:34:03.198Z,2.75
2023-05-21T08:35:03.202Z,2.61
2023-05-21T08:36:02.872Z,2.53
2023-05-21T08:37:03.009Z,2.37
2023-05-21T08:38:03.560Z,2.17
2023-05-21T08:39:03.366Z,2.13
2023-05-21T08:40:03.507Z,1.95
2023-05-21T08:41:03.211Z,1.82
2023-05-21T08:42:03.033Z,1.76
2023-05-21T08:43:03.121Z,1.81
2023-05-21T08:44:03.138Z,1.89
2023-05-21T08:45:02.655Z,1.81
2023-05-21T08:46:02.734Z,1.84
2023-05-21T08:47:02.938Z,1.80
2023-05-21T08:48:03.467Z,1.76
2023-05-21T08:49:03.115Z,1.68
2023-05-21T08:50:03.128Z,1.98
2023-05-21T08:51:03.306Z,1.97
2023-05-21T08:52:03.228Z,1.84
2023-05-21T08:53:07.532Z,1.84
2023-05-21T08:54:02.999Z,1.89
2023-05-21T08:55:03.457Z,1.91
2023-05-21T08:56:03.162Z,2.00
2023-05-21T08:57:03.481Z,2.06
2023-05-21T08:58:03.576Z,2.03
2023-05-21T08:59:03.262Z,1.95
2023-05-21T09:00:03.412Z,1.86
2023-05-21T09:01:03.500Z,1.75
2023-05-21T09:02:03.709Z,1.70
2023-05-21T09:03:02.988Z,2.01
2023-05-21T09:04:18.830Z,2.48
2023-05-21T09:05:02.954Z,2.23
2023-05-21T09:06:02.890Z,2.57
2023-05-21T09:07:02.328Z,2.82
2023-05-21T09:08:03.476Z,2.81
2023-05-21T09:09:03.436Z,2.72
2023-05-21T09:10:03.528Z,2.70
2023-05-21T09:11:03.447Z,2.62
2023-05-21T09:12:02.988Z,2.56
2023-05-21T09:13:03.635Z,2.14
2023-05-21T09:14:03.390Z,1.83
2023-05-21T09:15:03.600Z,1.68
2023-05-21T09:16:03.649Z,1.83
2023-05-21T09:17:03.224Z,1.69
2023-05-21T09:18:02.973Z,1.80
2023-05-21T09:19:04.474Z,1.70
2023-05-21T09:20:02.710Z,1.61
2023-05-21T09:21:02.823Z,1.65
2023-05-21T09:22:02.518Z,1.74
2023-05-21T09:23:02.978Z,1.81
2023-05-21T09:24:02.523Z,1.90
2023-05-21T09:25:02.561Z,1.93
2023-05-21T09:26:02.524Z,1.86
2023-05-21T09:27:02.812Z,2.03
2023-05-21T09:28:03.542Z,1.98
2023-05-21T09:29:03.329Z,2.51
2023-05-21T09:30:03.226Z,2.77
2023-05-21T09:31:03.552Z,2.89
2023-05-21T09:32:02.941Z,3.04
2023-05-21T09:33:02.336Z,2.82
2023-05-21T09:34:02.658Z,2.74
2023-05-21T09:35:02.362Z,3.01
2023-05-21T09:36:02.462Z,2.71
2023-05-21T09:37:03.688Z,2.30
2023-05-21T09:38:02.851Z,2.13
2023-05-21T09:39:03.493Z,2.51
2023-05-21T09:40:03.374Z,2.39
2023-05-21T09:41:03.132Z,2.25
2023-05-21T09:42:03.502Z,2.45
2023-05-21T09:43:03.455Z,2.47
2023-05-21T09:44:02.517Z,2.58
2023-05-21T09:45:03.104Z,2.79
2023-05-21T09:46:03.161Z,2.73
2023-05-21T09:47:02.991Z,2.85
2023-05-21T09:48:02.975Z,2.97
2023-05-21T09:49:03.341Z,2.78
2023-05-21T09:50:03.493Z,2.92
2023-05-21T09:51:03.711Z,3.03
2023-05-21T09:52:03.711Z,3.18
2023-05-21T09:53:03.805Z,3.17
2023-05-21T09:54:03.024Z,3.28
2023-05-21T09:55:03.117Z,3.46
2023-05-21T09:56:03.331Z,3.48
2023-05-21T09:57:03.264Z,3.72
2023-05-21T09:58:03.656Z,3.70
2023-05-21T09:59:03.217Z,3.37
2023-05-21T10:00:03.327Z,3.46
2023-05-21T10:01:03.103Z,3.34
2023-05-21T10:02:03.690Z,3.10
2023-05-21T10:03:03.226Z,3.08
2023-05-21T10:04:02.984Z,3.10
2023-05-21T10:05:03.263Z,3.04
2023-05-21T10:06:03.194Z,3.10
2023-05-21T10:07:02.777Z,3.24
2023-05-21T10:08:02.732Z,3.00
2023-05-21T10:09:05.591Z,3.12
2023-05-21T10:10:03.324Z,3.31
2023-05-21T10:11:03.449Z,3.37
2023-05-21T10:12:03.705Z,3.56
2023-05-21T10:13:03.073Z,3.60
2023-05-21T10:14:02.964Z,3.64
2023-05-21T10:15:02.598Z,3.71
2023-05-21T10:16:03.019Z,3.73
2023-05-21T10:17:02.653Z,3.73
2023-05-21T10:18:02.660Z,3.73
2023-05-21T10:19:03.418Z,3.75
2023-05-21T10:20:03.115Z,3.78
2023-05-21T10:21:03.054Z,3.80
2023-05-21T10:22:03.329Z,3.80
2023-05-21T10:23:02.928Z,3.79
2023-05-21T10:24:02.235Z,3.82
2023-05-21T10:25:02.537Z,3.82
2023-05-21T10:26:02.716Z,3.85
2023-05-21T10:27:02.870Z,3.85
2023-05-21T10:28:02.678Z,3.86
2023-05-21T10:29:02.944Z,3.91
2023-05-21T10:30:03.195Z,3.91
2023-05-21T10:31:02.935Z,3.92
2023-05-21T10:32:02.988Z,3.92
2023-05-21T10:33:03.274Z,3.88
2023-05-21T10:34:03.227Z,3.87
2023-05-21T10:35:02.747Z,3.83
2023-05-21T10:36:03.036Z,3.86
2023-05-21T10:37:03.090Z,3.93
2023-05-21T10:38:03.306Z,3.95
2023-05-21T10:39:03.829Z,4.00
2023-05-21T10:40:03.791Z,3.97
2023-05-21T10:41:03.433Z,3.99
2023-05-21T10:42:03.359Z,3.99
2023-05-21T10:43:03.594Z,3.85
2023-05-21T10:44:02.853Z,3.99
2023-05-21T10:45:03.007Z,4.02
2023-05-21T10:46:02.914Z,4.07
2023-05-21T10:47:03.314Z,4.13
2023-05-21T10:48:03.540Z,4.13
2023-05-21T10:49:02.911Z,4.15
2023-05-21T10:50:03.068Z,4.16
2023-05-21T10:51:02.543Z,4.17
2023-05-21T10:52:02.890Z,4.22
2023-05-21T10:53:03.043Z,4.24
2023-05-21T10:54:03.268Z,4.25
2023-05-21T10:55:03.770Z,4.25
2023-05-21T10:56:03.806Z,4.25
2023-05-21T10:57:03.566Z,4.28
2023-05-21T10:58:03.859Z,4.28
2023-05-21T10:59:02.777Z,4.30
2023-05-21T11:00:02.895Z,4.32
2023-05-21T11:01:03.147Z,4.32
2023-05-21T11:02:02.867Z,4.31
2023-05-21T11:03:03.007Z,4.33
2023-05-21T11:04:02.362Z,4.32
2023-05-21T11:05:02.307Z,4.36
2023-05-21T11:06:02.783Z,4.39
2023-05-21T11:07:02.490Z,4.43
2023-05-21T11:08:02.201Z,4.38
2023-05-21T11:09:02.814Z,4.39
2023-05-21T11:10:02.190Z,4.25
2023-05-21T11:11:02.272Z,4.28
2023-05-21T11:12:02.638Z,4.29
2023-05-21T11:13:02.528Z,4.11
2023-05-21T11:14:02.838Z,3.92
2023-05-21T11:15:03.188Z,4.07
2023-05-21T11:16:02.626Z,4.13
2023-05-21T11:17:02.874Z,4.13
2023-05-21T11:18:02.715Z,4.52
2023-05-21T11:19:03.400Z,4.51
2023-05-21T11:20:03.233Z,4.55
2023-05-21T11:21:03.235Z,4.52
2023-05-21T11:22:02.853Z,4.30
2023-05-21T11:23:02.621Z,3.72
2023-05-21T11:24:03.011Z,3.85
2023-05-21T11:25:03.300Z,4.00
2023-05-21T11:26:03.321Z,4.22
2023-05-21T11:27:02.781Z,4.26
2023-05-21T11:28:02.965Z,4.37
2023-05-21T11:29:02.548Z,3.84
2023-05-21T11:30:02.215Z,3.84
2023-05-21T11:31:02.381Z,3.61
2023-05-21T11:32:02.331Z,3.70
2023-05-21T11:33:02.566Z,3.24
2023-05-21T11:34:03.029Z,3.22
2023-05-21T11:35:02.767Z,3.96
2023-05-21T11:36:03.162Z,3.59
2023-05-21T11:37:02.801Z,3.36
2023-05-21T11:38:03.013Z,3.25
2023-05-21T11:39:02.600Z,3.55
2023-05-21T11:40:02.802Z,3.55
2023-05-21T11:41:02.783Z,3.12
2023-05-21T11:42:04.326Z,3.43
2023-05-21T11:43:02.774Z,3.58
2023-05-21T11:44:03.071Z,3.74
2023-05-21T11:45:02.707Z,4.07
2023-05-21T11:46:03.070Z,4.24
2023-05-21T11:47:02.797Z,4.09
2023-05-21T11:48:03.174Z,4.00
2023-05-21T11:49:03.100Z,4.09
2023-05-21T11:50:03.381Z,4.04
2023-05-21T11:51:02.734Z,4.23
2023-05-21T11:52:03.140Z,4.06
2023-05-21T11:53:02.806Z,3.83
2023-05-21T11:54:02.724Z,3.86
2023-05-21T11:55:02.849Z,3.54
2023-05-21T11:56:03.064Z,3.61
2023-05-21T11:57:03.007Z,3.52
2023-05-21T11:58:02.440Z,3.53
2023-05-21T11:59:03.639Z,3.40
2023-05-21T12:00:03.301Z,3.14
2023-05-21T12:01:03.038Z,3.34
2023-05-21T12:02:03.327Z,3.37
2023-05-21T12:03:03.289Z,3.33
2023-05-21T12:04:02.683Z,3.35
2023-05-21T12:05:02.921Z,3.29
2023-05-21T12:06:02.339Z,3.26
2023-05-21T12:07:02.425Z,3.28
2023-05-21T12:08:02.780Z,3.20
2023-05-21T12:09:02.968Z,3.27
2023-05-21T12:10:02.862Z,3.10
2023-05-21T12:11:03.092Z,3.11
2023-05-21T12:12:02.679Z,3.00
2023-05-21T12:13:02.994Z,2.92
2023-05-21T12:14:03.400Z,2.75
2023-05-21T12:15:02.838Z,2.52
2023-05-21T12:16:05.831Z,2.47
2023-05-21T12:17:03.072Z,2.54
2023-05-21T12:18:03.449Z,2.57
2023-05-21T12:19:02.886Z,2.52
2023-05-21T12:20:02.537Z,2.50
2023-05-21T12:21:02.874Z,2.61
2023-05-21T12:22:02.736Z,2.47
2023-05-21T12:23:02.887Z,2.62
2023-05-21T12:24:03.083Z,2.70
2023-05-21T12:25:03.070Z,2.76
2023-05-21T12:26:03.309Z,2.71
2023-05-21T12:27:03.153Z,2.70
2023-05-21T12:28:02.825Z,2.70
2023-05-21T12:29:03.686Z,2.82
2023-05-21T12:30:03.791Z,2.92
2023-05-21T12:31:03.563Z,2.85
2023-05-21T12:32:03.583Z,2.90
2023-05-21T12:33:04.000Z,2.85
2023-05-21T12:34:02.934Z,2.77
2023-05-21T12:35:03.238Z,2.82
2023-05-21T12:36:03.064Z,2.89
2023-05-21T12:37:02.699Z,2.86
2023-05-21T12:38:03.077Z,2.80
2023-05-21T12:39:03.344Z,2.52
2023-05-21T12:40:03.318Z,2.49
2023-05-21T12:41:03.568Z,2.52
2023-05-21T12:42:03.159Z,2.58
2023-05-21T12:43:02.793Z,2.69
2023-05-21T12:44:03.781Z,2.61
2023-05-21T12:45:03.853Z,2.49
2023-05-21T12:46:03.870Z,2.35
2023-05-21T12:47:03.529Z,2.33
2023-05-21T12:48:03.948Z,2.52
2023-05-21T12:49:03.159Z,2.52
2023-05-21T12:50:02.524Z,2.71
2023-05-21T12:51:02.772Z,2.82
2023-05-21T12:52:02.903Z,2.91
2023-05-21T12:53:02.600Z,2.98
2023-05-21T12:54:03.483Z,3.01
2023-05-21T12:55:03.157Z,2.91
2023-05-21T12:56:03.580Z,2.62
2023-05-21T12:57:03.501Z,2.53
2023-05-21T12:58:03.057Z,2.55
2023-05-21T12:59:03.590Z,2.78
2023-05-21T13:00:03.502Z,2.90
2023-05-21T13:01:05.365Z,2.83
2023-05-21T13:02:03.966Z,2.86
2023-05-21T13:03:04.070Z,2.82
2023-05-21T13:04:03.018Z,2.82
2023-05-21T13:05:02.718Z,2.66
2023-05-21T13:06:02.904Z,2.85
2023-05-21T13:07:05.026Z,3.01
2023-05-21T13:08:02.693Z,2.88
2023-05-21T13:09:03.039Z,2.80
2023-05-21T13:10:03.590Z,2.76
2023-05-21T13:11:03.886Z,2.68
2023-05-21T13:12:03.253Z,2.65
2023-05-21T13:13:03.543Z,2.76
2023-05-21T13:14:03.180Z,2.89
2023-05-21T13:15:03.492Z,3.07
2023-05-21T13:16:03.412Z,3.12
2023-05-21T13:17:03.592Z,3.22
2023-05-21T13:18:03.580Z,3.19